Time;durP1;ratioP1;P1;durP2;ratioP2;P2;SDS_P1;SDS_P2;PMS_P1;PMS_P2;Temp;Humidity;BMP_temperature;BMP_pressure;BME280_temperature;BME280_humidity;BME280_pressure;Samples;Min_cycle;Max_cycle;Signal;HPM_P1;HPM_P2
2024/01/25 00:01:12;;;;;;;11.98;3.45;;;;;;;;;;5016286;28;20049;-68
2024/01/25 00:03:38;;;;;;;18.67;4.43;;;;;;;;;;5015380;28;20053;-67
2024/01/25 00:06:05;;;;;;;16.60;4.20;;;;;;;;;;5024422;28;20049;-68
2024/01/25 00:08:31;;;;;;;11.85;3.15;;;;;;;;;;5026946;28;20045;-68
2024/01/25 00:10:57;;;;;;;14.43;4.20;;;;;;;;;;5016381;28;20132;-69
2024/01/25 00:13:23;;;;;;;18.88;4.18;;;;;;;;;;5017843;28;20053;-68
2024/01/25 00:15:49;;;;;;;15.52;4.03;;;;;;;;;;5015990;28;20076;-68
2024/01/25 00:18:15;;;;;;;15.85;3.60;;;;;;;;;;5014697;28;20053;-68
2024/01/25 00:20:41;;;;;;;14.68;4.07;;;;;;;;;;5017953;28;20045;-68
2024/01/25 00:23:07;;;;;;;11.00;3.40;;;;;;;;;;5018273;28;20135;-68
2024/01/25 00:25:33;;;;;;;9.18;3.67;;;;;;;;;;5015485;28;20045;-68
2024/01/25 00:27:59;;;;;;;12.57;3.80;;;;;;;;;;5014938;28;20765;-68
2024/01/25 00:30:25;;;;;;;14.98;3.83;;;;;;;;;;5013695;28;20049;-68
2024/01/25 00:32:51;;;;;;;11.38;3.17;;;;;;;;;;5017223;28;20097;-68
2024/01/25 00:35:17;;;;;;;8.82;3.30;;;;;;;;;;5016638;28;20437;-68
2024/01/25 00:37:43;;;;;;;13.25;4.43;;;;;;;;;;5025150;28;20049;-68
2024/01/25 00:40:10;;;;;;;10.80;2.97;;;;;;;;;;5024374;28;20623;-68
2024/01/25 00:42:44;;;;;;;18.73;3.92;;;;;;;;;;5025035;28;20046;-68
2024/01/25 00:45:11;;;;;;;11.93;3.35;;;;;;;;;;5014137;28;20053;-68
2024/01/25 00:47:37;;;;;;;13.27;3.47;;;;;;;;;;5025037;28;20389;-68
2024/01/25 00:50:04;;;;;;;15.13;3.78;;;;;;;;;;5015681;28;20481;-68
2024/01/25 00:52:30;;;;;;;15.35;4.18;;;;;;;;;;5015841;28;20045;-68
2024/01/25 00:54:56;;;;;;;12.98;3.17;;;;;;;;;;5020019;28;20080;-68
2024/01/25 00:57:23;;;;;;;10.68;2.45;;;;;;;;;;5025275;28;20052;-68
2024/01/25 00:59:49;;;;;;;8.15;1.60;;;;;;;;;;5024026;28;20051;-68
2024/01/25 01:02:15;;;;;;;10.80;2.97;;;;;;;;;;5015922;28;20053;-68
2024/01/25 01:04:41;;;;;;;21.17;4.20;;;;;;;;;;5017848;28;20128;-68
2024/01/25 01:07:07;;;;;;;11.77;3.33;;;;;;;;;;5025078;28;20060;-68
2024/01/25 01:09:33;;;;;;;14.27;3.80;;;;;;;;;;5014300;28;20042;-67
2024/01/25 01:11:59;;;;;;;22.65;3.90;;;;;;;;;;5014478;28;20065;-68
2024/01/25 01:14:25;;;;;;;14.50;4.25;;;;;;;;;;5014095;28;20049;-68
2024/01/25 01:16:51;;;;;;;15.23;3.33;;;;;;;;;;5016877;28;20056;-67
2024/01/25 01:19:18;;;;;;;16.13;3.85;;;;;;;;;;5017397;28;20042;-68
2024/01/25 01:21:44;;;;;;;13.07;3.60;;;;;;;;;;5021672;28;20452;-68
2024/01/25 01:24:11;;;;;;;11.55;3.95;;;;;;;;;;5014084;28;20053;-68
2024/01/25 01:26:37;;;;;;;13.35;3.53;;;;;;;;;;5014392;28;20061;-68
2024/01/25 01:29:03;;;;;;;9.75;2.65;;;;;;;;;;5016958;28;20436;-68
2024/01/25 01:31:29;;;;;;;12.98;3.42;;;;;;;;;;5016620;28;20412;-68
2024/01/25 01:33:55;;;;;;;18.65;3.50;;;;;;;;;;5023505;28;20033;-69
2024/01/25 01:36:21;;;;;;;9.05;2.92;;;;;;;;;;5017332;28;20120;-68
2024/01/25 01:38:48;;;;;;;11.63;2.63;;;;;;;;;;5017725;28;20049;-68
2024/01/25 01:41:14;;;;;;;14.82;3.53;;;;;;;;;;5018280;28;20045;-68
2024/01/25 01:43:40;;;;;;;12.57;3.05;;;;;;;;;;5012050;28;20072;-68
2024/01/25 01:46:21;;;;;;;11.27;3.63;;;;;;;;;;5015030;28;20052;-68
2024/01/25 01:48:47;;;;;;;11.63;2.60;;;;;;;;;;5016148;28;20052;-68
2024/01/25 01:51:13;;;;;;;11.15;2.65;;;;;;;;;;5020420;28;20505;-67
2024/01/25 01:53:40;;;;;;;10.93;2.55;;;;;;;;;;5012160;28;20070;-68
2024/01/25 01:56:07;;;;;;;11.18;3.15;;;;;;;;;;5013557;28;20404;-67
2024/01/25 01:58:33;;;;;;;12.35;3.40;;;;;;;;;;5016917;28;20166;-68
2024/01/25 02:01:00;;;;;;;16.13;3.20;;;;;;;;;;5016568;28;20049;-67
2024/01/25 02:03:26;;;;;;;9.07;2.22;;;;;;;;;;5021117;28;20358;-68
2024/01/25 02:05:52;;;;;;;9.65;2.67;;;;;;;;;;5014099;28;20061;-68
2024/01/25 02:08:18;;;;;;;13.52;2.92;;;;;;;;;;5013469;28;20135;-67
2024/01/25 02:10:44;;;;;;;15.88;4.05;;;;;;;;;;5014624;28;20084;-69
2024/01/25 02:13:10;;;;;;;15.80;3.45;;;;;;;;;;5016831;28;20665;-69
2024/01/25 02:15:36;;;;;;;10.68;2.97;;;;;;;;;;5021712;28;20049;-67
2024/01/25 02:18:02;;;;;;;12.57;3.40;;;;;;;;;;5021647;28;20041;-68
2024/01/25 02:20:28;;;;;;;14.95;3.20;;;;;;;;;;5024997;28;20044;-68
2024/01/25 02:22:54;;;;;;;10.65;3.28;;;;;;;;;;5015414;28;20041;-68
2024/01/25 02:25:20;;;;;;;12.85;3.35;;;;;;;;;;5015815;28;20053;-68
2024/01/25 02:27:46;;;;;;;8.50;3.47;;;;;;;;;;5013541;28;20056;-67
2024/01/25 02:30:12;;;;;;;10.45;2.38;;;;;;;;;;5011965;28;20084;-67
2024/01/25 02:32:38;;;;;;;5.68;2.30;;;;;;;;;;5017719;28;20540;-67
2024/01/25 02:35:05;;;;;;;4.65;1.77;;;;;;;;;;5022811;28;20061;-67
2024/01/25 02:37:31;;;;;;;10.55;2.72;;;;;;;;;;5020730;28;20052;-68
2024/01/25 02:39:57;;;;;;;8.73;2.65;;;;;;;;;;5020005;28;20046;-68
2024/01/25 02:42:23;;;;;;;8.05;2.53;;;;;;;;;;5022305;28;20053;-67
2024/01/25 02:44:49;;;;;;;9.15;2.35;;;;;;;;;;5020686;28;20068;-68
2024/01/25 02:47:15;;;;;;;9.52;2.85;;;;;;;;;;5021988;28;20061;-67
2024/01/25 02:49:41;;;;;;;8.55;2.33;;;;;;;;;;5022102;28;20053;-67
2024/01/25 02:52:07;;;;;;;6.03;2.00;;;;;;;;;;5023842;28;20057;-67
2024/01/25 02:54:36;;;;;;;12.35;2.55;;;;;;;;;;5026123;28;20104;-67
2024/01/25 02:57:03;;;;;;;10.38;2.72;;;;;;;;;;5024793;28;20060;-67
2024/01/25 02:59:29;;;;;;;4.80;2.15;;;;;;;;;;5022223;28;20439;-68
2024/01/25 03:01:55;;;;;;;8.15;2.22;;;;;;;;;;5025509;28;20049;-67
2024/01/25 03:04:21;;;;;;;12.40;2.80;;;;;;;;;;5026523;28;20048;-67
2024/01/25 03:06:47;;;;;;;7.20;2.95;;;;;;;;;;5025808;28;20053;-67
2024/01/25 03:09:13;;;;;;;8.10;2.28;;;;;;;;;;5026889;28;20111;-67
2024/01/25 03:11:39;;;;;;;11.55;3.13;;;;;;;;;;5026873;28;20492;-67
2024/01/25 03:14:05;;;;;;;7.63;2.63;;;;;;;;;;5025802;28;20049;-67
2024/01/25 03:16:31;;;;;;;5.75;2.13;;;;;;;;;;5026726;28;20085;-67
2024/01/25 03:18:57;;;;;;;6.97;2.15;;;;;;;;;;5026363;28;20099;-68
2024/01/25 03:21:23;;;;;;;3.78;1.60;;;;;;;;;;5025309;28;20045;-68
2024/01/25 03:23:49;;;;;;;5.25;1.60;;;;;;;;;;5026024;28;20059;-67
2024/01/25 03:26:15;;;;;;;8.50;1.90;;;;;;;;;;5025909;28;20049;-67
2024/01/25 03:28:41;;;;;;;7.65;1.63;;;;;;;;;;5025176;28;20514;-68
2024/01/25 03:31:07;;;;;;;3.28;1.17;;;;;;;;;;5025699;28;20094;-67
2024/01/25 03:33:33;;;;;;;4.50;1.70;;;;;;;;;;5025625;28;20046;-68
2024/01/25 03:36:03;;;;;;;4.15;1.63;;;;;;;;;;5025275;28;20102;-68
2024/01/25 03:38:29;;;;;;;8.25;1.75;;;;;;;;;;5025072;28;20045;-67
2024/01/25 03:40:56;;;;;;;2.40;1.35;;;;;;;;;;5024761;28;22019;-67
2024/01/25 03:43:25;;;;;;;5.95;2.25;;;;;;;;;;5038557;28;20049;-67
2024/01/25 03:45:52;;;;;;;4.05;1.20;;;;;;;;;;5026438;28;20107;-67
2024/01/25 03:48:18;;;;;;;6.20;1.80;;;;;;;;;;5025883;28;20301;-67
2024/01/25 03:50:44;;;;;;;4.22;1.73;;;;;;;;;;5024448;28;20045;-67
2024/01/25 03:53:10;;;;;;;5.10;1.55;;;;;;;;;;5023948;28;20114;-67
2024/01/25 03:55:36;;;;;;;8.52;1.77;;;;;;;;;;5024407;28;20096;-67
2024/01/25 03:58:02;;;;;;;5.28;1.92;;;;;;;;;;5024328;28;20057;-68
2024/01/25 04:00:28;;;;;;;5.65;1.83;;;;;;;;;;5026214;28;20444;-68
2024/01/25 04:02:54;;;;;;;6.18;1.52;;;;;;;;;;5023481;28;20049;-67
2024/01/25 04:05:20;;;;;;;4.85;1.63;;;;;;;;;;5024146;28;20067;-68
2024/01/25 04:07:46;;;;;;;5.85;1.20;;;;;;;;;;5022802;28;20049;-67
2024/01/25 04:10:12;;;;;;;4.10;1.50;;;;;;;;;;5023204;28;20042;-67
2024/01/25 04:12:39;;;;;;;5.57;1.63;;;;;;;;;;5022195;28;20053;-67
2024/01/25 04:15:05;;;;;;;4.45;1.25;;;;;;;;;;5023073;28;20061;-67
2024/01/25 04:17:31;;;;;;;6.03;1.65;;;;;;;;;;5021997;28;20044;-68
2024/01/25 04:19:57;;;;;;;3.00;1.20;;;;;;;;;;5024162;28;20045;-68
2024/01/25 04:22:23;;;;;;;8.85;2.10;;;;;;;;;;5026441;28;20045;-67
2024/01/25 04:24:49;;;;;;;7.18;1.67;;;;;;;;;;5024474;28;20058;-68
2024/01/25 04:27:16;;;;;;;5.43;1.58;;;;;;;;;;5025395;28;20462;-67
2024/01/25 04:29:42;;;;;;;11.13;2.67;;;;;;;;;;5024211;28;20053;-67
2024/01/25 04:32:08;;;;;;;4.50;1.60;;;;;;;;;;5024637;28;20041;-67
2024/01/25 04:34:34;;;;;;;6.65;1.73;;;;;;;;;;5024764;28;20052;-67
2024/01/25 04:37:00;;;;;;;8.07;1.50;;;;;;;;;;5023302;28;20136;-68
2024/01/25 04:39:26;;;;;;;8.57;2.38;;;;;;;;;;5024990;28;20053;-67
2024/01/25 04:41:53;;;;;;;9.45;2.42;;;;;;;;;;5022272;28;20041;-67
2024/01/25 04:44:19;;;;;;;7.72;2.03;;;;;;;;;;5025120;28;20045;-67
2024/01/25 04:46:45;;;;;;;8.90;2.20;;;;;;;;;;5026252;28;20073;-67
2024/01/25 04:49:11;;;;;;;8.32;2.28;;;;;;;;;;5024370;28;20049;-68
2024/01/25 04:51:37;;;;;;;12.27;2.90;;;;;;;;;;5024465;28;20049;-68
2024/01/25 04:54:03;;;;;;;4.72;1.73;;;;;;;;;;5024547;28;20436;-67
2024/01/25 04:56:29;;;;;;;8.30;2.78;;;;;;;;;;5025109;28;20048;-68
2024/01/25 04:58:55;;;;;;;6.95;2.28;;;;;;;;;;5025322;28;20049;-68
2024/01/25 05:01:21;;;;;;;7.43;1.83;;;;;;;;;;5025436;28;20045;-67
2024/01/25 05:03:47;;;;;;;3.83;1.35;;;;;;;;;;5021025;28;20138;-68
2024/01/25 05:06:13;;;;;;;6.65;1.95;;;;;;;;;;5018080;28;20567;-67
2024/01/25 05:08:39;;;;;;;4.25;1.40;;;;;;;;;;5022718;28;20053;-67
2024/01/25 05:11:05;;;;;;;5.95;1.13;;;;;;;;;;5025002;28;20049;-68
2024/01/25 05:13:31;;;;;;;6.70;2.05;;;;;;;;;;5024092;28;20091;-67
2024/01/25 05:15:57;;;;;;;5.68;1.85;;;;;;;;;;5023962;28;20053;-67
2024/01/25 05:18:23;;;;;;;5.45;1.88;;;;;;;;;;5024147;28;20045;-68
2024/01/25 05:20:49;;;;;;;6.75;2.03;;;;;;;;;;5023991;28;20041;-67
2024/01/25 05:23:15;;;;;;;4.10;1.73;;;;;;;;;;5023971;28;20481;-67
2024/01/25 05:25:41;;;;;;;3.72;0.98;;;;;;;;;;5023576;28;20487;-67
2024/01/25 05:28:07;;;;;;;4.65;1.38;;;;;;;;;;5019065;28;20053;-68
2024/01/25 05:30:33;;;;;;;2.78;0.70;;;;;;;;;;5025283;28;20104;-67
2024/01/25 05:33:00;;;;;;;3.63;0.55;;;;;;;;;;5022842;28;20077;-67
2024/01/25 05:35:26;;;;;;;2.33;0.65;;;;;;;;;;5023078;28;20129;-67
2024/01/25 05:37:52;;;;;;;1.25;0.55;;;;;;;;;;5018488;28;20089;-67
2024/01/25 05:40:19;;;;;;;5.25;1.08;;;;;;;;;;5017331;28;20072;-67
2024/01/25 05:42:45;;;;;;;3.45;0.80;;;;;;;;;;5013901;28;20045;-67
2024/01/25 05:45:11;;;;;;;2.38;0.95;;;;;;;;;;5025010;28;20045;-67
2024/01/25 05:47:37;;;;;;;0.82;0.40;;;;;;;;;;5023121;28;20480;-67
2024/01/25 05:50:04;;;;;;;1.23;0.38;;;;;;;;;;5020902;28;20100;-67
2024/01/25 05:52:31;;;;;;;3.97;0.80;;;;;;;;;;5020457;28;20057;-67
2024/01/25 05:54:57;;;;;;;1.73;0.60;;;;;;;;;;5023929;28;20049;-67
2024/01/25 05:57:23;;;;;;;3.70;0.68;;;;;;;;;;5023464;28;20049;-67
2024/01/25 05:59:49;;;;;;;3.20;0.70;;;;;;;;;;5023897;28;20053;-67
2024/01/25 06:02:15;;;;;;;5.45;1.27;;;;;;;;;;5019976;28;20124;-67
2024/01/25 06:04:41;;;;;;;2.25;0.90;;;;;;;;;;5022749;28;20481;-67
2024/01/25 06:07:07;;;;;;;2.85;0.85;;;;;;;;;;5024682;28;20349;-67
2024/01/25 06:09:33;;;;;;;7.32;1.95;;;;;;;;;;5017175;28;20038;-66
2024/01/25 06:11:59;;;;;;;6.32;1.92;;;;;;;;;;5018712;28;20128;-67
2024/01/25 06:14:25;;;;;;;4.28;1.52;;;;;;;;;;5024095;28;20645;-67
2024/01/25 06:16:51;;;;;;;9.40;2.33;;;;;;;;;;5023458;28;20100;-67
2024/01/25 06:19:17;;;;;;;4.97;1.52;;;;;;;;;;5023955;28;20041;-67
2024/01/25 06:21:43;;;;;;;10.73;2.20;;;;;;;;;;5024657;28;20758;-67
2024/01/25 06:24:09;;;;;;;8.10;1.95;;;;;;;;;;5021747;28;20054;-67
2024/01/25 06:26:35;;;;;;;5.75;1.52;;;;;;;;;;5023258;28;20591;-67
2024/01/25 06:29:01;;;;;;;6.00;1.50;;;;;;;;;;5029901;28;20041;-67
2024/01/25 06:31:28;;;;;;;7.53;2.03;;;;;;;;;;5027191;28;20049;-67
2024/01/25 06:33:54;;;;;;;8.05;1.90;;;;;;;;;;5028484;28;20044;-67
2024/01/25 06:36:20;;;;;;;7.40;2.08;;;;;;;;;;5031366;28;20049;-67
2024/01/25 06:38:46;;;;;;;5.10;1.63;;;;;;;;;;5030848;28;20136;-67
2024/01/25 06:41:12;;;;;;;8.77;2.28;;;;;;;;;;5023031;28;20090;-67
2024/01/25 06:43:40;;;;;;;4.45;1.75;;;;;;;;;;5023179;28;20049;-67
2024/01/25 06:46:06;;;;;;;9.60;2.47;;;;;;;;;;5025561;28;20054;-68
2024/01/25 06:48:32;;;;;;;7.43;2.47;;;;;;;;;;5019953;28;20328;-67
2024/01/25 06:50:58;;;;;;;3.53;0.93;;;;;;;;;;5021015;28;20056;-67
2024/01/25 06:53:24;;;;;;;3.72;1.40;;;;;;;;;;5023137;28;20083;-67
2024/01/25 06:55:50;;;;;;;2.65;1.05;;;;;;;;;;5021041;28;20037;-67
2024/01/25 06:58:16;;;;;;;3.40;1.00;;;;;;;;;;5026459;28;20045;-67
2024/01/25 07:00:42;;;;;;;2.60;1.00;;;;;;;;;;5029403;28;20049;-67
2024/01/25 07:03:09;;;;;;;3.58;1.20;;;;;;;;;;5026188;28;20041;-67
2024/01/25 07:05:35;;;;;;;8.52;1.63;;;;;;;;;;5018722;28;20136;-67
2024/01/25 07:08:02;;;;;;;4.90;1.20;;;;;;;;;;5027047;28;20045;-68
2024/01/25 07:10:28;;;;;;;6.22;1.70;;;;;;;;;;5026476;28;20543;-67
2024/01/25 07:12:54;;;;;;;2.40;1.27;;;;;;;;;;5030564;28;20128;-67
2024/01/25 07:15:20;;;;;;;3.63;0.88;;;;;;;;;;5021250;28;20087;-67
2024/01/25 07:17:46;;;;;;;4.10;0.98;;;;;;;;;;5020985;28;20080;-67
2024/01/25 07:20:13;;;;;;;1.73;0.63;;;;;;;;;;5023807;28;20052;-67
2024/01/25 07:22:43;;;;;;;0.63;0.52;;;;;;;;;;5025710;28;20163;-67
2024/01/25 07:25:09;;;;;;;2.45;0.98;;;;;;;;;;5030430;28;20114;-67
2024/01/25 07:27:35;;;;;;;1.30;0.50;;;;;;;;;;5020571;28;20045;-67
2024/01/25 07:30:01;;;;;;;4.60;1.15;;;;;;;;;;5029863;28;20052;-68
2024/01/25 07:32:27;;;;;;;4.60;1.77;;;;;;;;;;5023313;28;20045;-67
2024/01/25 07:34:54;;;;;;;7.97;1.77;;;;;;;;;;5026541;28;20045;-67
2024/01/25 07:37:20;;;;;;;4.90;1.63;;;;;;;;;;5026225;28;20050;-67
2024/01/25 07:39:46;;;;;;;7.47;1.80;;;;;;;;;;5024311;28;20059;-67
2024/01/25 07:42:12;;;;;;;4.88;1.45;;;;;;;;;;5022413;28;20045;-67
2024/01/25 07:44:38;;;;;;;6.30;1.83;;;;;;;;;;5024096;28;20053;-67
2024/01/25 07:47:04;;;;;;;10.23;2.97;;;;;;;;;;5020395;28;20045;-68
2024/01/25 07:49:30;;;;;;;9.07;2.22;;;;;;;;;;5023582;28;20045;-68
2024/01/25 07:51:56;;;;;;;8.60;2.92;;;;;;;;;;5020547;28;20045;-68
2024/01/25 07:54:23;;;;;;;7.47;2.47;;;;;;;;;;5021741;28;20088;-68
2024/01/25 07:56:49;;;;;;;6.13;2.20;;;;;;;;;;5019326;28;20421;-67
2024/01/25 07:59:15;;;;;;;11.15;2.28;;;;;;;;;;5022127;28;20046;-68
2024/01/25 08:01:41;;;;;;;9.95;2.50;;;;;;;;;;5019714;28;20050;-67
2024/01/25 08:04:07;;;;;;;10.15;2.42;;;;;;;;;;5025197;28;20052;-67
2024/01/25 08:06:33;;;;;;;6.20;2.15;;;;;;;;;;5025778;28;20057;-68
2024/01/25 08:08:59;;;;;;;11.45;3.05;;;;;;;;;;5025320;28;20046;-83
2024/01/25 08:11:25;;;;;;;16.05;4.18;;;;;;;;;;5028201;28;20137;-83
2024/01/25 08:13:52;;;;;;;12.07;2.40;;;;;;;;;;5019624;28;20038;-67
2024/01/25 08:16:19;;;;;;;9.60;3.00;;;;;;;;;;5016002;28;20611;-79
2024/01/25 08:18:45;;;;;;;8.25;2.22;;;;;;;;;;5017615;28;20142;-75
2024/01/25 08:21:12;;;;;;;8.90;2.67;;;;;;;;;;5023683;28;20084;-66
2024/01/25 08:23:39;;;;;;;5.72;2.17;;;;;;;;;;5024651;28;20492;-68
2024/01/25 08:26:05;;;;;;;11.50;2.95;;;;;;;;;;5013687;28;20054;-65
2024/01/25 08:28:31;;;;;;;6.78;2.33;;;;;;;;;;5023345;28;20052;-65
2024/01/25 08:30:57;;;;;;;3.60;1.40;;;;;;;;;;5020412;28;20053;-65
2024/01/25 08:33:24;;;;;;;7.18;2.00;;;;;;;;;;5026382;28;20145;-66
2024/01/25 08:35:51;;;;;;;5.43;2.15;;;;;;;;;;5022288;28;20048;-66
2024/01/25 08:38:17;;;;;;;6.00;2.10;;;;;;;;;;5025591;28;20045;-66
2024/01/25 08:40:43;;;;;;;5.50;2.25;;;;;;;;;;5021886;28;20053;-65
2024/01/25 08:43:09;;;;;;;9.98;2.45;;;;;;;;;;5019666;28;20049;-65
2024/01/25 08:45:36;;;;;;;9.70;2.40;;;;;;;;;;5019459;28;20382;-66
2024/01/25 08:48:02;;;;;;;6.47;2.25;;;;;;;;;;5032421;28;20045;-65
2024/01/25 08:50:29;;;;;;;5.13;1.88;;;;;;;;;;5023670;28;20534;-65
2024/01/25 08:52:55;;;;;;;7.05;2.10;;;;;;;;;;5031535;28;20099;-64
2024/01/25 08:55:21;;;;;;;6.82;2.28;;;;;;;;;;5021065;28;20108;-66
2024/01/25 08:57:48;;;;;;;11.20;2.13;;;;;;;;;;5016626;28;20054;-66
2024/01/25 09:00:15;;;;;;;5.70;2.03;;;;;;;;;;5017909;28;20044;-66
2024/01/25 09:02:42;;;;;;;5.78;1.40;;;;;;;;;;5018497;28;20041;-66
2024/01/25 09:05:08;;;;;;;7.22;2.28;;;;;;;;;;5013645;28;20111;-66
2024/01/25 09:07:34;;;;;;;8.55;2.05;;;;;;;;;;5014116;28;20076;-66
2024/01/25 09:10:00;;;;;;;5.28;1.77;;;;;;;;;;5016428;28;20045;-66
2024/01/25 09:12:26;;;;;;;8.40;2.20;;;;;;;;;;5016833;28;20042;-65
2024/01/25 09:14:52;;;;;;;11.82;3.78;;;;;;;;;;5016425;28;20044;-65
2024/01/25 09:17:21;;;;;;;8.23;2.20;;;;;;;;;;5013748;28;20057;-66
2024/01/25 09:19:51;;;;;;;6.25;2.17;;;;;;;;;;5017742;28;20396;-65
2024/01/25 09:22:20;;;;;;;6.25;2.15;;;;;;;;;;5017105;28;20085;-65
2024/01/25 09:24:46;;;;;;;9.38;2.42;;;;;;;;;;5021099;28;20104;-65
2024/01/25 09:27:13;;;;;;;38.20;5.55;;;;;;;;;;5017973;28;20396;-65
2024/01/25 09:29:43;;;;;;;14.15;3.45;;;;;;;;;;5023425;28;20144;-65
2024/01/25 09:32:09;;;;;;;13.35;3.35;;;;;;;;;;5024216;28;20072;-65
2024/01/25 09:34:38;;;;;;;10.75;3.40;;;;;;;;;;5022766;28;20063;-65
2024/01/25 09:37:05;;;;;;;13.23;3.17;;;;;;;;;;5011724;28;20041;-65
2024/01/25 09:39:35;;;;;;;12.20;3.22;;;;;;;;;;5017108;28;20048;-65
2024/01/25 09:42:01;;;;;;;10.10;3.08;;;;;;;;;;5036395;28;20654;-65
2024/01/25 09:44:27;;;;;;;9.70;2.85;;;;;;;;;;5024272;28;20049;-65
2024/01/25 09:46:54;;;;;;;19.88;4.63;;;;;;;;;;5021624;28;20045;-65
2024/01/25 09:49:20;;;;;;;16.92;4.07;;;;;;;;;;5023590;28;20136;-65
2024/01/25 09:51:46;;;;;;;17.48;4.03;;;;;;;;;;5021651;28;20065;-65
2024/01/25 09:54:13;;;;;;;16.35;4.07;;;;;;;;;;5024293;28;20052;-64
2024/01/25 09:56:42;;;;;;;21.38;4.68;;;;;;;;;;5024556;28;20479;-65
2024/01/25 09:59:08;;;;;;;14.43;3.50;;;;;;;;;;5014345;28;20485;-64
2024/01/25 10:01:35;;;;;;;10.82;3.65;;;;;;;;;;5015185;28;20139;-65
2024/01/25 10:04:01;;;;;;;17.42;4.15;;;;;;;;;;5016001;28;20725;-66
2024/01/25 10:06:27;;;;;;;20.50;4.95;;;;;;;;;;5017793;28;20500;-65
2024/01/25 10:08:53;;;;;;;21.10;5.18;;;;;;;;;;5015105;28;20053;-65
2024/01/25 10:11:20;;;;;;;25.40;5.70;;;;;;;;;;5013146;28;20548;-65
2024/01/25 10:13:47;;;;;;;23.98;4.68;;;;;;;;;;5019176;28;20049;-65
2024/01/25 10:16:16;;;;;;;14.85;3.83;;;;;;;;;;5022684;28;20057;-64
2024/01/25 10:18:43;;;;;;;15.55;3.97;;;;;;;;;;5023312;28;20056;-64
2024/01/25 10:21:13;;;;;;;14.73;4.25;;;;;;;;;;5016497;28;20056;-65
2024/01/25 10:23:39;;;;;;;10.48;3.30;;;;;;;;;;5020049;28;20057;-65
2024/01/25 10:26:05;;;;;;;11.43;3.45;;;;;;;;;;5018530;28;20042;-65
2024/01/25 10:28:32;;;;;;;17.58;4.28;;;;;;;;;;5018528;28;20049;-66
2024/01/25 10:31:01;;;;;;;19.95;4.82;;;;;;;;;;5021938;28;20128;-65
2024/01/25 10:33:27;;;;;;;9.82;3.35;;;;;;;;;;5024280;28;20132;-65
2024/01/25 10:36:01;;;;;;;8.88;3.90;;;;;;;;;;5018182;28;20049;-65
2024/01/25 10:38:29;;;;;;;11.45;3.40;;;;;;;;;;5022420;28;20068;-65
2024/01/25 10:40:55;;;;;;;15.50;3.75;;;;;;;;;;5022686;28;20048;-66
2024/01/25 10:43:21;;;;;;;12.45;3.42;;;;;;;;;;5020685;28;20504;-66
2024/01/25 10:45:47;;;;;;;15.05;3.38;;;;;;;;;;5022177;28;20053;-65
2024/01/25 10:48:13;;;;;;;15.30;3.42;;;;;;;;;;5021066;28;20045;-65
2024/01/25 10:50:39;;;;;;;13.80;3.58;;;;;;;;;;5017487;28;20073;-65
2024/01/25 10:53:06;;;;;;;18.83;5.18;;;;;;;;;;5018684;28;20073;-65
2024/01/25 10:55:32;;;;;;;16.48;4.38;;;;;;;;;;5019001;28;20122;-66
2024/01/25 10:57:58;;;;;;;16.95;4.18;;;;;;;;;;5021758;28;20045;-65
2024/01/25 11:00:24;;;;;;;18.73;4.28;;;;;;;;;;5022656;28;20041;-70
2024/01/25 11:02:51;;;;;;;14.77;4.78;;;;;;;;;;5018394;28;20389;-66
2024/01/25 11:05:18;;;;;;;23.10;5.93;;;;;;;;;;5020227;28;20056;-66
2024/01/25 11:07:51;;;;;;;21.17;5.47;;;;;;;;;;5017585;28;20825;-66
2024/01/25 11:10:21;;;;;;;16.85;4.75;;;;;;;;;;5016156;28;20131;-67
2024/01/25 11:12:57;;;;;;;16.08;6.50;;;;;;;;;;5021446;28;20618;-66
2024/01/25 11:15:24;;;;;;;15.25;4.70;;;;;;;;;;5041663;28;20053;-66
2024/01/25 11:17:54;;;;;;;15.85;5.30;;;;;;;;;;5022534;28;20045;-67
2024/01/25 11:20:21;;;;;;;16.13;5.32;;;;;;;;;;5024057;28;20052;-66
2024/01/25 11:22:47;;;;;;;21.08;5.75;;;;;;;;;;5024427;28;20053;-66
2024/01/25 11:25:17;;;;;;;32.22;7.60;;;;;;;;;;5022336;28;20057;-67
2024/01/25 11:27:43;;;;;;;15.07;4.15;;;;;;;;;;5023992;28;20057;-67
2024/01/25 11:30:10;;;;;;;17.98;4.57;;;;;;;;;;5019569;28;20071;-66
2024/01/25 11:32:36;;;;;;;20.13;5.65;;;;;;;;;;5023848;28;20054;-65
2024/01/25 11:35:02;;;;;;;13.10;4.05;;;;;;;;;;5016470;28;20531;-65
2024/01/25 11:37:28;;;;;;;29.83;6.25;;;;;;;;;;5026407;28;20432;-65
2024/01/25 11:39:54;;;;;;;20.50;5.32;;;;;;;;;;5017973;28;20045;-65
2024/01/25 11:42:20;;;;;;;16.27;4.90;;;;;;;;;;5024488;28;20152;-65
2024/01/25 11:44:46;;;;;;;21.83;6.00;;;;;;;;;;5027160;28;20037;-66
2024/01/25 11:47:12;;;;;;;18.35;5.95;;;;;;;;;;5017918;28;20080;-65
2024/01/25 11:49:38;;;;;;;22.67;5.82;;;;;;;;;;5018653;28;20140;-64
2024/01/25 11:52:04;;;;;;;20.70;5.78;;;;;;;;;;5024585;28;20103;-64
2024/01/25 11:54:30;;;;;;;18.15;5.03;;;;;;;;;;5023022;28;20103;-64
2024/01/25 11:56:56;;;;;;;14.15;4.72;;;;;;;;;;5024813;28;20073;-65
2024/01/25 11:59:22;;;;;;;15.75;5.03;;;;;;;;;;5020355;28;20127;-66
2024/01/25 12:01:49;;;;;;;20.73;5.53;;;;;;;;;;5022866;28;20045;-65
2024/01/25 12:04:15;;;;;;;17.90;5.72;;;;;;;;;;5024537;28;20471;-66
2024/01/25 12:06:41;;;;;;;22.48;6.78;;;;;;;;;;5018960;28;20124;-66
2024/01/25 12:09:10;;;;;;;19.30;4.93;;;;;;;;;;5020262;28;20128;-66
2024/01/25 12:11:36;;;;;;;12.57;4.55;;;;;;;;;;5020431;28;20189;-66
2024/01/25 12:14:02;;;;;;;12.65;4.43;;;;;;;;;;5017055;28;20095;-67
2024/01/25 12:16:29;;;;;;;24.20;6.32;;;;;;;;;;5023666;28;20049;-66
2024/01/25 12:18:55;;;;;;;18.73;6.57;;;;;;;;;;5025913;28;20064;-66
2024/01/25 12:21:21;;;;;;;23.23;6.80;;;;;;;;;;5025447;28;20534;-66
2024/01/25 12:23:47;;;;;;;23.38;5.82;;;;;;;;;;5025697;28;20072;-66
2024/01/25 12:26:13;;;;;;;22.65;5.05;;;;;;;;;;5021509;28;20057;-66
2024/01/25 12:28:39;;;;;;;19.25;4.82;;;;;;;;;;5022319;28;20103;-67
2024/01/25 12:31:06;;;;;;;27.23;6.55;;;;;;;;;;5020796;28;20037;-66
2024/01/25 12:33:32;;;;;;;13.82;4.97;;;;;;;;;;5024504;28;20073;-65
2024/01/25 12:35:58;;;;;;;21.67;6.15;;;;;;;;;;5024116;28;20099;-67
2024/01/25 12:38:25;;;;;;;19.98;5.55;;;;;;;;;;5024315;28;20496;-66
2024/01/25 12:40:51;;;;;;;23.60;5.97;;;;;;;;;;5018202;28;20050;-67
2024/01/25 12:43:18;;;;;;;25.13;5.88;;;;;;;;;;5024208;28;20077;-66
2024/01/25 12:45:44;;;;;;;20.85;5.47;;;;;;;;;;5019550;28;20054;-66
2024/01/25 12:48:10;;;;;;;17.35;5.35;;;;;;;;;;5019777;28;20535;-65
2024/01/25 12:50:36;;;;;;;17.70;5.28;;;;;;;;;;5017402;28;20065;-66
2024/01/25 12:53:03;;;;;;;15.63;5.40;;;;;;;;;;5024602;28;20037;-67
2024/01/25 12:55:29;;;;;;;17.23;4.70;;;;;;;;;;5017950;28;20080;-66
2024/01/25 12:57:56;;;;;;;21.63;6.35;;;;;;;;;;5015778;28;20081;-66
2024/01/25 13:00:22;;;;;;;25.88;6.75;;;;;;;;;;5017524;28;20046;-66
2024/01/25 13:02:49;;;;;;;20.45;5.25;;;;;;;;;;5016843;28;20054;-66
2024/01/25 13:05:15;;;;;;;18.52;4.80;;;;;;;;;;5014599;28;20524;-66
2024/01/25 13:07:41;;;;;;;23.83;5.70;;;;;;;;;;5014137;28;20709;-66
2024/01/25 13:10:08;;;;;;;17.83;4.85;;;;;;;;;;5015432;28;20099;-66
2024/01/25 13:12:34;;;;;;;19.38;4.72;;;;;;;;;;5014694;28;20103;-66
2024/01/25 13:15:00;;;;;;;21.83;5.75;;;;;;;;;;5015335;28;20408;-66
2024/01/25 13:17:27;;;;;;;19.15;4.25;;;;;;;;;;5012709;28;20738;-66
2024/01/25 13:19:53;;;;;;;14.70;4.20;;;;;;;;;;5011693;28;20242;-66
2024/01/25 13:22:24;;;;;;;17.92;4.60;;;;;;;;;;5014132;28;20046;-66
2024/01/25 13:24:50;;;;;;;18.00;5.22;;;;;;;;;;5015983;28;20057;-67
2024/01/25 13:27:16;;;;;;;24.02;4.80;;;;;;;;;;5015374;28;20497;-66
2024/01/25 13:29:42;;;;;;;15.57;4.07;;;;;;;;;;5013597;28;20085;-67
2024/01/25 13:32:08;;;;;;;15.32;4.45;;;;;;;;;;5013956;28;20087;-66
2024/01/25 13:34:35;;;;;;;16.77;4.65;;;;;;;;;;5017312;28;20042;-67
2024/01/25 13:37:01;;;;;;;23.60;4.18;;;;;;;;;;5016512;28;20132;-67
2024/01/25 13:39:28;;;;;;;16.88;4.25;;;;;;;;;;5015423;28;20050;-67
2024/01/25 13:41:54;;;;;;;8.68;3.20;;;;;;;;;;5013732;28;20042;-66
2024/01/25 13:44:20;;;;;;;10.35;2.63;;;;;;;;;;5013411;28;20045;-66
2024/01/25 13:46:46;;;;;;;11.05;3.83;;;;;;;;;;5012446;28;20114;-67
2024/01/25 13:49:12;;;;;;;7.95;2.92;;;;;;;;;;5014735;28;20049;-66
2024/01/25 13:51:38;;;;;;;6.68;2.38;;;;;;;;;;5015661;28;20053;-66
2024/01/25 13:54:04;;;;;;;5.32;2.15;;;;;;;;;;5017320;28;20040;-67
2024/01/25 13:56:30;;;;;;;5.43;2.70;;;;;;;;;;5018867;28;20131;-66
2024/01/25 13:58:56;;;;;;;8.15;2.85;;;;;;;;;;5014498;28;20085;-67
2024/01/25 14:01:22;;;;;;;10.40;3.25;;;;;;;;;;5014054;28;20049;-66
2024/01/25 14:03:48;;;;;;;9.13;3.20;;;;;;;;;;5013419;28;20057;-66
2024/01/25 14:06:14;;;;;;;8.38;3.45;;;;;;;;;;5015178;28;20403;-65
2024/01/25 14:08:40;;;;;;;13.25;3.53;;;;;;;;;;5022672;28;20248;-65
2024/01/25 14:11:06;;;;;;;10.05;3.85;;;;;;;;;;5020398;28;20057;-64
2024/01/25 14:13:32;;;;;;;7.38;3.20;;;;;;;;;;5026357;28;20044;-65
2024/01/25 14:15:58;;;;;;;13.98;3.67;;;;;;;;;;5015538;28;20053;-65
2024/01/25 14:18:25;;;;;;;12.32;3.35;;;;;;;;;;5018661;28;20037;-65
2024/01/25 14:20:51;;;;;;;6.57;2.58;;;;;;;;;;5021357;28;20463;-65
2024/01/25 14:23:17;;;;;;;12.77;4.10;;;;;;;;;;5021564;28;20053;-65
2024/01/25 14:25:44;;;;;;;7.18;2.40;;;;;;;;;;5014399;28;20092;-65
2024/01/25 14:28:10;;;;;;;13.07;3.67;;;;;;;;;;5017344;28;20508;-65
2024/01/25 14:30:36;;;;;;;9.23;3.42;;;;;;;;;;5025709;28;20041;-65